• Join FlightAware (Why Join?)
  • Login
  • US Flag 
07:15PM EDT


 

Airport Tracker/Info


-or-


 

Live Flight TrackerFlight Track Log ✈ UAL582 ✈ 09-May-2013 ✈ KORD - KATL

Flight Track Log - Related Links

Times and Time Zones

All times are in EDT time to prevent confusion due to time zone crossing. See the UAL582 flight status page for this flight to view local times or setup timezone preferences in your user account.

Time Position Orientation Groundspeed Altitude Reporting Facility
EDT Latitude Longitude Course Direction KTS MPH feet Rate Location/Type
08:00PM 41.9333 -87.9167 180° South 170 196 2,100  Level Chicago TRACON
08:01PM 41.9000 -87.9167 180° South 159 183 4,100 2,040 Climbing Chicago TRACON
08:02PM 41.8333 -87.9167 180° South 254 292 6,000 2,040 Climbing Chicago TRACON
08:02PM 41.8128 -87.9108 168° South 236 272 7,200 3,300 Climbing Chicago Center
08:03PM 41.7242 -87.9031 176° South 266 306 11,100 3,000 Climbing Chicago Center
08:04PM 41.6442 -87.8972 177° South 286 329 13,500 2,280 Climbing Chicago Center
08:05PM 41.5542 -87.8892 176° South 320 368 15,900 2,400 Climbing Chicago Center
08:06PM 41.4592 -87.8825 177° South 335 386 18,500 2,220 Climbing Chicago Center
08:07PM 41.3606 -87.8811 179° South 349 402 20,500 1,680 Climbing Chicago Center
08:08PM 41.2569 -87.8931 185° South 366 421 22,000 1,500 Climbing Chicago Center
08:09PM 41.1475 -87.8894 179° South 386 444 23,600 1,500 Climbing Chicago Center
08:10PM 41.0122 -87.8858 179° South 402 463 25,200 1,080 Climbing Chicago Center
08:11PM 40.8922 -87.8800 178° South 428 493 25,900 1,200 Climbing Chicago Center
08:13PM 40.7672 -87.8767 179° South 446 513 27,700 1,500 Climbing Chicago Center
08:14PM 40.6433 -87.8719 178° South 447 514 29,100 1,080 Climbing Chicago Center
08:15PM 40.5222 -87.8981 189° South 442 509 30,000 420 Climbing Chicago Center
08:16PM 40.4008 -87.9375 194° South 448 516 30,000  Level Chicago Center
08:17PM 40.2625 -87.9864 195° South 437 503 30,000 60 Level Chicago Center
08:18PM 40.1542 -88.0214 194° South 434 499 30,200 900 Climbing Chicago Center
08:19PM 40.0394 -88.0625 195° South 431 496 31,900 1,320 Climbing Chicago Center
08:20PM 39.9039 -88.1117 196° South 425 489 33,000 600 Climbing Chicago Center
08:21PM 39.8114 -88.0981 174° South 425 489 33,000 360 Level Indianapolis Center
08:22PM 39.7008 -88.0542 163° South 420 483 33,700 960 Climbing Indianapolis Center
08:23PM 39.5869 -88.0083 163° South 426 490 35,000 600 Climbing Indianapolis Center
08:24PM 39.4753 -87.9642 163° South 423 487 35,000  Level Indianapolis Center
08:25PM 39.3647 -87.9181 162° South 423 487 35,000  Level Indianapolis Center
08:26PM 39.2506 -87.8719 163° South 426 490 35,000  Level Indianapolis Center
08:27PM 39.1369 -87.8272 163° South 426 490 35,000 -60 Level Indianapolis Center
08:28PM 39.0211 -87.7825 163° South 432 497 34,900  Descending Indianapolis Center
08:29PM 38.8797 -87.7264 163° South 441 507 35,000  Climbing Indianapolis Center
08:30PM 38.7614 -87.6800 163° South 445 512 35,000  Level Indianapolis Center
08:31PM 38.6417 -87.6322 163° South 448 516 35,000  Level Indianapolis Center
08:32PM 38.5208 -87.5850 163° South 453 521 35,000 -300 Level Indianapolis Center
08:33PM 38.3992 -87.5381 163° South 457 526 34,400 -1,320 Descending Indianapolis Center
08:34PM 38.2811 -87.4922 163° South 449 517 32,400 -2,220 Descending Indianapolis Center
08:35PM 38.1656 -87.4475 163° South 438 504 29,900 -2,640 Descending Indianapolis Center
08:36PM 38.0311 -87.3942 163° South 426 490 27,000 -2,280 Descending Indianapolis Center
08:37PM 37.9239 -87.3536 163° South 407 468 25,300 -1,020 Descending Indianapolis Center
08:38PM 37.8183 -87.3136 163° South 397 457 25,000 -180 Descending Indianapolis Center
08:39PM 37.7142 -87.2736 163° South 395 455 25,000  Level Indianapolis Center
08:40PM 37.6081 -87.2328 163° South 394 453 25,000  Level Indianapolis Center
08:41PM 37.5333 -87.2058 164° South 398 458 25,000  Level Memphis Center
08:42PM 37.4283 -87.1656 163° South 398 458 25,000  Level Memphis Center
08:43PM 37.3253 -87.1253 163° South 403 464 25,000  Level Memphis Center
08:44PM 37.2158 -87.0856 164° South 403 464 25,000  Level Memphis Center
08:45PM 37.1106 -87.0456 163° South 403 464 25,000  Level Memphis Center
08:46PM 37.0158 -87.0081 162° South 403 464 25,000  Level Memphis Center
08:47PM 36.9144 -86.9553 157° South 403 464 25,000  Level Memphis Center
08:48PM 36.8150 -86.9022 157° South 398 458 25,000  Level Memphis Center
08:49PM 36.7114 -86.8500 158° South 398 458 25,000  Level Memphis Center
08:50PM 36.6119 -86.7972 157° South 393 452 25,000  Level Memphis Center
08:51PM 36.4978 -86.7406 158° South 393 452 25,000  Level Memphis Center
08:52PM 36.3919 -86.6883 158° South 398 458 25,000  Level Memphis Center
08:53PM 36.2778 -86.6319 158° South 420 483 25,000  Level Memphis Center
08:54PM 36.1678 -86.5778 158° South 430 495 25,000  Level Memphis Center
08:55PM 36.0556 -86.5214 158° South 430 495 25,000  Level Memphis Center
08:56PM 35.9558 -86.4719 158° South 436 502 25,000  Level Memphis Center
08:58PM 35.7031 -86.3328 156° South 436 502 25,000  Level Atlanta Center
08:59PM 35.6025 -86.2533 147° Southeast 435 501 25,000  Level Atlanta Center
09:00PM 35.5119 -86.1819 147° Southeast 440 506 25,000  Level Atlanta Center
09:01PM 35.4089 -86.0978 146° Southeast 440 506 25,000  Level Atlanta Center
09:02PM 35.3081 -86.0161 147° Southeast 440 506 25,000  Level Atlanta Center
09:03PM 35.2050 -85.9375 148° Southeast 440 506 25,000  Level Atlanta Center
09:04PM 35.0936 -85.8461 146° Southeast 440 506 25,000  Level Atlanta Center
09:05PM 34.9925 -85.7653 147° Southeast 440 506 25,000  Level Atlanta Center
09:06PM 34.8894 -85.6847 147° Southeast 440 506 25,000  Level Atlanta Center
09:07PM 34.7881 -85.6069 148° Southeast 435 501 25,000  Level Atlanta Center
09:08PM 34.6847 -85.5242 147° Southeast 435 501 25,000  Level Atlanta Center
09:09PM 34.5814 -85.4442 147° Southeast 440 506 25,000 -960 Level Atlanta Center
09:10PM 34.4800 -85.3667 148° Southeast 440 506 23,100 -2,280 Descending Atlanta Center
09:11PM 34.3786 -85.2872 147° Southeast 440 506 20,500 -2,520 Descending Atlanta Center
09:12PM 34.2811 -85.2153 149° Southeast 422 486 18,100 -2,340 Descending Atlanta Center
09:13PM 34.1858 -85.1361 145° Southeast 412 474 15,900 -2,040 Descending Atlanta Center
09:14PM 34.1136 -85.0575 138° Southeast 405 466 14,100 -1,020 Descending Atlanta Center
09:15PM 34.0350 -84.9589 134° Southeast 400 460 13,900 -720 Descending Atlanta Center
09:16PM 33.9606 -84.8603 132° Southeast 395 455 12,700 -1,020 Descending Atlanta Center
09:17PM 33.8861 -84.7669 134° Southeast 395 455 11,900 -600 Descending Atlanta Center
09:17PM 33.8500 -84.7167 131° Southeast 387 445 11,900  Level Atlanta TRACON
09:18PM 33.7833 -84.6333 134° Southeast 324 373 11,900 -180 Level Atlanta TRACON
09:19PM 33.7333 -84.5500 126° Southeast 282 325 11,600 -1,020 Descending Atlanta TRACON
09:20PM 33.7333 -84.4667 90° East 272 313 9,900 -1,740 Descending Atlanta TRACON
09:21PM 33.7333 -84.3833 90° East 261 300 8,200 -1,680 Descending Atlanta TRACON
09:22PM 33.7333 -84.3000 90° East 240 276 6,600 -1,800 Descending Atlanta TRACON
09:23PM 33.7167 -84.2167 103° East 240 276 4,700 -1,620 Descending Atlanta TRACON
09:24PM 33.6667 -84.2500 209° Southwest 223 257 3,600 -1,200 Descending Atlanta TRACON